• Join FlightAware (Why Join?)
  • Login
  • US Flag 
10:12AM EDT


 

Airport Tracker/Info


-or-


 

Live Flight TrackerFlight Track Log ✈ FFT919 ✈ 11-Nov-2013 ✈ KTTN - KRDU

Flight Track Log - Related Links

Times and Time Zones

All times are in EST time to prevent confusion due to time zone crossing. See the FFT919 flight status page for this flight to view local times or setup timezone preferences in your user account.

Time Position Orientation Groundspeed Altitude Reporting Facility
EST Latitude Longitude Course Direction KTS MPH feet Rate Location/Type
08:03AM 40.2390 -74.8610 223° Southwest 197 227 2,100  Level FlightAware
08:04AM 40.2200 -74.8840 223° Southwest 221 254 3,200 2,520 Climbing FlightAware
08:04AM 40.1910 -74.9180 222° Southwest 260 299 4,700 2,580 Climbing FlightAware
08:05AM 40.1490 -74.9480 209° Southwest 274 315 6,300 1,500 Climbing FlightAware
08:06AM 40.1060 -74.9780 208° Southwest 278 320 6,600 360 Climbing FlightAware
08:06AM 40.0640 -75.0080 209° Southwest 276 318 6,800 1,200 Climbing FlightAware
08:07AM 40.0120 -75.0440 208° Southwest 277 319 8,300 1,860 Climbing FlightAware
08:08AM 39.9640 -75.0770 208° Southwest 275 316 9,700 1,200 Climbing FlightAware
08:08AM 39.9320 -75.1000 209° Southwest 293 337 9,700  Level FlightAware
08:08AM 39.9070 -75.1160 206° Southwest 305 351 9,700  Level FlightAware
08:09AM 39.8430 -75.1600 208° Southwest 312 359 9,700 240 Level FlightAware
08:10AM 39.7970 -75.1930 209° Southwest 317 365 10,100 840 Climbing FlightAware
08:10AM 39.7530 -75.2230 208° Southwest 320 368 10,700 1,020 Climbing FlightAware
08:11AM 39.6690 -75.2800 208° Southwest 327 376 11,700 600 Climbing FlightAware
08:12AM 39.6170 -75.3060 201° Southwest 339 390 11,800 600 Climbing FlightAware
08:13AM 39.5390 -75.3200 188° South 331 381 12,600 960 Climbing FlightAware
08:13AM 39.4940 -75.3290 189° South 326 375 13,100 1,020 Climbing FlightAware
08:14AM 39.4420 -75.3380 188° South 338 389 13,700 1,200 Climbing FlightAware
08:14AM 39.3950 -75.3470 188° South 348 400 14,400 1,620 Climbing FlightAware
08:15AM 39.3290 -75.3590 188° South 353 406 15,700 1,740 Climbing FlightAware
08:16AM 39.2670 -75.3700 188° South 357 411 16,700 720 Climbing FlightAware
08:16AM 39.2000 -75.3820 188° South 363 418 16,700  Level FlightAware
08:17AM 39.1510 -75.3890 186° South 367 422 16,700  Level FlightAware
08:18AM 39.0920 -75.3980 187° South 367 422 16,700 780 Level FlightAware
08:18AM 39.0380 -75.4060 187° South 366 421 17,600 2,160 Climbing FlightAware
08:19AM 38.9150 -75.4250 187° South 380 437 20,500 2,220 Climbing FlightAware
08:20AM 38.8490 -75.4350 187° South 392 451 21,700 1,860 Climbing FlightAware
08:20AM 38.7820 -75.4450 187° South 403 464 22,800 1,980 Climbing FlightAware
08:21AM 38.7150 -75.4550 187° South 403 464 24,200 2,040 Climbing FlightAware
08:22AM 38.6380 -75.4670 187° South 412 474 25,500 1,860 Climbing FlightAware
08:22AM 38.5680 -75.4770 186° South 416 479 26,600 2,220 Climbing FlightAware
08:23AM 38.4940 -75.4880 187° South 407 468 28,300 2,160 Climbing FlightAware
08:24AM 38.3760 -75.5090 188° South 398 458 30,400 1,980 Climbing FlightAware
08:25AM 38.2990 -75.5400 198° South 379 436 31,900 1,200 Climbing FlightAware
08:25AM 38.2440 -75.5730 205° Southwest 369 425 32,000 60 Climbing FlightAware
08:26AM 38.1810 -75.6120 206° Southwest 369 425 32,000  Level FlightAware
08:27AM 38.1360 -75.6490 213° Southwest 362 417 32,000  Level FlightAware
08:27AM 38.0990 -75.6850 217° Southwest 364 419 32,000  Level FlightAware
08:28AM 38.0350 -75.7480 218° Southwest 366 421 32,000  Level FlightAware
08:28AM 38.0060 -75.7760 217° Southwest 367 422 32,000  Level FlightAware
08:29AM 37.9460 -75.8350 218° Southwest 369 425 32,000  Level FlightAware
08:30AM 37.8810 -75.8980 217° Southwest 370 426 32,000  Level FlightAware
08:30AM 37.8280 -75.9490 217° Southwest 369 425 32,000  Level FlightAware
08:31AM 37.7470 -76.0280 218° Southwest 366 421 32,000  Level FlightAware
08:32AM 37.7130 -76.0620 218° Southwest 366 421 32,000 -540 Level FlightAware
08:33AM 37.6500 -76.1220 217° Southwest 368 423 31,400 -960 Descending FlightAware
08:33AM 37.6080 -76.1630 218° Southwest 369 425 30,800 -1,080 Descending FlightAware
08:34AM 37.5350 -76.2330 217° Southwest 376 433 30,000 -1,020 Descending FlightAware
08:35AM 37.4970 -76.2700 218° Southwest 379 436 29,500 -1,260 Descending FlightAware
08:35AM 37.4400 -76.3250 217° Southwest 378 435 28,600 -1,800 Descending FlightAware
08:36AM 37.3540 -76.4060 217° Southwest 369 425 26,400 -1,800 Descending FlightAware
08:37AM 37.3260 -76.4340 218° Southwest 367 422 25,700 -2,040 Descending FlightAware
08:37AM 37.2590 -76.5010 219° Southwest 354 407 24,000 -1,680 Descending FlightAware
08:38AM 37.2230 -76.5550 230° Southwest 348 400 23,700 -420 Descending FlightAware
08:39AM 37.1840 -76.6150 231° Southwest 345 397 23,500 -420 Descending FlightAware
08:39AM 37.1490 -76.6710 232° Southwest 344 396 23,200 -480 Descending FlightAware
08:40AM 37.0970 -76.7520 231° Southwest 342 394 22,800 -420 Descending FlightAware
08:41AM 37.0580 -76.8120 231° Southwest 343 395 22,600 -480 Descending FlightAware
08:41AM 37.0270 -76.8600 231° Southwest 343 395 22,300 -480 Descending FlightAware
08:42AM 36.9920 -76.9140 231° Southwest 342 394 22,100 -540 Descending FlightAware
08:43AM 36.9520 -76.9750 231° Southwest 302 348 21,600 -900 Descending FlightAware
08:44AM 36.8890 -77.0720 231° Southwest 337 388 20,600 -780 Descending FlightAware
08:45AM 36.8190 -77.1810 231° Southwest 333 383 19,900 -420 Descending FlightAware
08:46AM 36.7890 -77.2260 230° Southwest 333 383 19,900 -1,620 Level FlightAware
08:46AM 36.7670 -77.2590 230° Southwest 329 379 18,700 -1,200 Descending FlightAware
08:47AM 36.7260 -77.3230 231° Southwest 329 379 18,700  Level FlightAware
08:47AM 36.6840 -77.3870 231° Southwest 329 379 18,700  Level FlightAware
08:48AM 36.6560 -77.4300 231° Southwest 329 379 18,700  Level FlightAware
08:49AM 36.5990 -77.5170 231° Southwest 329 379 18,700  Level FlightAware
08:50AM 36.5790 -77.5480 231° Southwest 329 379 18,700 -1,440 Level FlightAware
08:54AM 36.2840 -77.9950 231° Southwest 302 348 11,300 -1,440 Descending FlightAware
08:55AM 36.2360 -78.0680 231° Southwest 304 350 10,600 -780 Descending FlightAware
08:56AM 36.2070 -78.1110 230° Southwest 304 350 10,200 -900 Descending FlightAware
08:56AM 36.1740 -78.1600 230° Southwest 284 327 9,600 -1,200 Descending FlightAware
08:57AM 36.1460 -78.2180 239° Southwest 277 319 8,600 -1,560 Descending FlightAware
08:58AM 36.1230 -78.2670 240° Southwest 275 316 7,600 -1,620 Descending FlightAware
08:58AM 36.1080 -78.3190 250° West 279 321 6,700 -1,560 Descending FlightAware
08:59AM 36.0890 -78.3900 252° West 274 315 5,500 -1,620 Descending FlightAware
09:00AM 36.0730 -78.4450 250° West 281 323 4,500 -1,380 Descending FlightAware
09:00AM 36.0600 -78.4930 251° West 275 316 4,000 -840 Descending FlightAware
09:01AM 36.0470 -78.5400 251° West 254 292 3,600 -720 Descending FlightAware
09:01AM 36.0350 -78.5880 253° West 230 265 3,200 -660 Descending FlightAware
09:02AM 36.0220 -78.6190 243° Southwest 221 254 2,900 -600 Descending FlightAware
09:02AM 35.9980 -78.6490 225° Southwest 215 247 2,600 -600 Descending FlightAware
09:03AM 35.9710 -78.6820 225° Southwest 196 226 2,200 -900 Descending FlightAware
09:04AM 35.9470 -78.7120 225° Southwest 185 213 1,500 -1,020 Descending FlightAware
09:04AM 35.9370 -78.7250 226° Southwest 171 197 1,200 -420 Descending FlightAware
09:05AM 35.9230 -78.7420 225° Southwest 171 197 1,200 -420 Level FlightAware
09:06AM 35.8967 -78.7767 225° Southwest 120 138 600 -660 Descending Washington Center
09:08AM 35.8776 -78.7875 349° North  Level Estimated